Terminal Aerodrome Forecast
Issued by NWS Grand Forks, ND

Home | Current Version | Previous Version | Graphics & Text | Print | Product List | Glossary On
Versions: 1 2 3 4 5 6 7 8 9 10 11 12 13 14 15
000
FTUS43 KFGF 140500
TAFFAR
TAF
KFAR 140520Z 1406/1506 36013KT P6SM SKC
     FM141500 35016G22KT P6SM BKN040
     FM142300 34011KT P6SM SCT050=

USA.gov is the U.S. government's official web portal to all federal, state and local government web resources and services.